createdAt,value
2019-02-02T00:00:57.714Z,0.00
2019-02-02T00:03:28.899Z,0.00
2019-02-02T00:06:00.405Z,0.00
2019-02-02T00:08:31.785Z,0.00
2019-02-02T00:11:03.228Z,0.10
2019-02-02T00:13:34.284Z,0.10
2019-02-02T00:16:06.116Z,0.10
2019-02-02T00:18:38.982Z,0.10
2019-02-02T00:21:10.224Z,0.10
2019-02-02T00:23:41.615Z,0.10
2019-02-02T00:26:12.814Z,0.20
2019-02-02T00:28:43.935Z,0.10
2019-02-02T00:31:15.132Z,0.20
2019-02-02T00:33:46.045Z,0.20
2019-02-02T00:36:16.960Z,0.20
2019-02-02T00:38:48.047Z,0.20
2019-02-02T00:41:20.140Z,0.20
2019-02-02T00:43:51.113Z,0.20
2019-02-02T00:46:24.272Z,0.20
2019-02-02T00:48:55.370Z,0.20
2019-02-02T00:51:27.456Z,0.20
2019-02-02T00:53:58.872Z,0.20
2019-02-02T00:56:30.195Z,0.20
2019-02-02T00:59:01.328Z,0.20
2019-02-02T01:01:32.379Z,0.20
2019-02-02T01:04:05.774Z,0.20
2019-02-02T01:06:37.688Z,0.20
2019-02-02T01:09:19.523Z,0.20
2019-02-02T01:11:51.282Z,0.20
2019-02-02T01:14:22.600Z,0.10
2019-02-02T01:16:53.740Z,0.10
2019-02-02T01:19:25.266Z,0.10
2019-02-02T01:21:59.980Z,0.20
2019-02-02T01:24:31.190Z,0.10
2019-02-02T01:27:02.363Z,0.20
2019-02-02T01:29:33.423Z,0.20
2019-02-02T01:32:04.582Z,0.20
2019-02-02T01:34:35.905Z,0.10
2019-02-02T01:37:07.261Z,0.20
2019-02-02T01:39:38.563Z,0.20
2019-02-02T01:42:10.313Z,0.20
2019-02-02T01:44:41.918Z,0.20
2019-02-02T01:47:13.367Z,0.20
2019-02-02T01:49:45.599Z,0.20
2019-02-02T01:52:17.107Z,0.20
2019-02-02T01:54:48.754Z,0.30
2019-02-02T01:57:20.274Z,0.30
2019-02-02T01:59:51.993Z,0.30
2019-02-02T02:02:23.121Z,0.30
2019-02-02T02:04:54.355Z,0.30
2019-02-02T02:07:27.762Z,0.30
2019-02-02T02:10:00.335Z,0.30
2019-02-02T02:12:31.698Z,0.30
2019-02-02T02:15:23.176Z,0.30
2019-02-02T02:17:54.434Z,0.30
2019-02-02T02:20:25.531Z,0.30
2019-02-02T02:22:57.493Z,0.30
2019-02-02T02:25:29.615Z,0.30
2019-02-02T02:28:03.327Z,0.30
2019-02-02T02:30:34.656Z,0.30
2019-02-02T02:33:05.817Z,0.40
2019-02-02T02:35:37.289Z,0.40
2019-02-02T02:38:08.577Z,0.40
2019-02-02T02:40:43.124Z,0.40
2019-02-02T02:43:14.400Z,0.40
2019-02-02T02:45:45.431Z,0.40
2019-02-02T02:48:18.125Z,0.40
2019-02-02T02:50:49.131Z,0.40
2019-02-02T02:53:20.712Z,0.40
2019-02-02T02:55:51.756Z,0.40
2019-02-02T02:58:22.659Z,0.40
2019-02-02T03:00:53.578Z,0.40
2019-02-02T03:03:24.837Z,0.40
2019-02-02T03:05:56.896Z,0.50
2019-02-02T03:08:28.169Z,0.50
2019-02-02T03:11:00.432Z,0.50
2019-02-02T03:13:31.601Z,0.50
2019-02-02T03:16:03.460Z,0.50
2019-02-02T03:18:35.915Z,0.50
2019-02-02T03:21:07.250Z,0.50
2019-02-02T03:23:38.966Z,0.50
2019-02-02T03:26:10.763Z,0.50
2019-02-02T03:28:53.259Z,0.50
2019-02-02T03:31:17.082Z,0.50
2019-02-02T03:33:48.860Z,0.50
2019-02-02T03:36:20.691Z,0.50
2019-02-02T03:38:52.048Z,0.50
2019-02-02T03:41:23.319Z,0.50
2019-02-02T03:43:55.085Z,0.60
2019-02-02T03:46:26.736Z,0.60
2019-02-02T03:48:57.737Z,0.60
2019-02-02T03:51:28.914Z,0.60
2019-02-02T03:54:08.166Z,0.60
2019-02-02T03:56:33.662Z,0.60
2019-02-02T03:59:06.586Z,0.60
2019-02-02T04:01:39.673Z,0.60
2019-02-02T04:04:12.525Z,0.60
2019-02-02T04:06:44.891Z,0.60
2019-02-02T04:09:16.213Z,0.60
2019-02-02T04:11:49.190Z,0.60
2019-02-02T04:14:20.584Z,0.60
2019-02-02T04:16:51.851Z,0.70
2019-02-02T04:19:23.930Z,0.70
2019-02-02T04:21:55.183Z,0.70
2019-02-02T04:24:26.465Z,0.70
2019-02-02T04:26:57.607Z,0.70
2019-02-02T04:29:28.801Z,0.70
2019-02-02T04:31:59.970Z,0.70
2019-02-02T04:34:31.288Z,0.70
2019-02-02T04:37:03.394Z,0.60
2019-02-02T04:39:36.054Z,0.60
2019-02-02T04:42:21.384Z,0.60
2019-02-02T04:44:52.764Z,0.60
2019-02-02T04:47:37.074Z,0.60
2019-02-02T04:50:10.689Z,0.70
2019-02-02T04:52:41.892Z,0.70
2019-02-02T04:55:15.429Z,0.70
2019-02-02T04:57:46.694Z,0.70
2019-02-02T05:00:28.597Z,0.70
2019-02-02T05:03:00.951Z,0.70
2019-02-02T05:05:32.224Z,0.70
2019-02-02T05:08:03.409Z,0.80
2019-02-02T05:10:34.700Z,0.80
2019-02-02T05:13:06.516Z,0.80
2019-02-02T05:15:37.845Z,0.80
2019-02-02T05:18:08.911Z,0.80
2019-02-02T05:20:39.927Z,0.80
2019-02-02T05:23:12.064Z,0.80
2019-02-02T05:25:43.079Z,0.80
2019-02-02T05:28:14.573Z,0.80
2019-02-02T05:30:46.104Z,0.80
2019-02-02T05:33:17.540Z,0.80
2019-02-02T05:35:48.718Z,0.80
2019-02-02T05:38:19.726Z,0.80
2019-02-02T05:40:50.578Z,0.80
2019-02-02T05:43:21.462Z,0.80
2019-02-02T05:45:53.335Z,0.90
2019-02-02T05:48:24.225Z,0.90
2019-02-02T05:50:56.301Z,0.90
2019-02-02T05:53:28.203Z,0.90
2019-02-02T05:55:59.110Z,0.90
2019-02-02T05:58:31.702Z,0.90
2019-02-02T06:01:02.697Z,0.90
2019-02-02T06:03:33.590Z,0.90
2019-02-02T06:06:04.466Z,0.90
2019-02-02T06:08:35.341Z,0.90
2019-02-02T06:11:06.532Z,0.90
2019-02-02T06:13:38.136Z,0.90
2019-02-02T06:16:10.454Z,0.90
2019-02-02T06:18:41.339Z,1.00
2019-02-02T06:21:12.212Z,1.00
2019-02-02T06:23:43.079Z,0.90
2019-02-02T06:26:13.985Z,1.00
2019-02-02T06:28:44.877Z,1.00
2019-02-02T06:31:15.720Z,1.00
2019-02-02T06:33:46.608Z,1.00
2019-02-02T06:36:17.483Z,1.00
2019-02-02T06:38:50.177Z,1.00
2019-02-02T06:41:22.938Z,1.00
2019-02-02T06:43:53.838Z,1.00
2019-02-02T06:46:24.720Z,1.00
2019-02-02T06:48:55.515Z,1.00
2019-02-02T06:51:26.411Z,1.00
2019-02-02T06:53:57.296Z,1.00
2019-02-02T06:56:28.125Z,1.00
2019-02-02T06:59:00.076Z,1.00
2019-02-02T07:01:31.080Z,1.00
2019-02-02T07:04:01.975Z,1.10
2019-02-02T07:06:32.864Z,1.10
2019-02-02T07:09:05.818Z,1.10
2019-02-02T07:11:37.806Z,1.10
2019-02-02T07:14:08.974Z,1.10
2019-02-02T07:16:39.972Z,1.10
2019-02-02T07:19:10.842Z,1.10
2019-02-02T07:21:41.893Z,1.10
2019-02-02T07:24:12.962Z,1.10
2019-02-02T07:26:44.024Z,1.10
2019-02-02T07:29:15.016Z,1.10
2019-02-02T07:31:45.899Z,1.10
2019-02-02T07:34:16.855Z,1.20
2019-02-02T07:36:47.675Z,1.20
2019-02-02T07:39:19.635Z,1.20
2019-02-02T07:41:50.547Z,1.10
2019-02-02T07:44:21.463Z,1.20
2019-02-02T07:46:52.361Z,1.20
2019-02-02T07:49:23.311Z,1.20
2019-02-02T07:51:54.117Z,1.20
2019-02-02T07:54:25.090Z,1.20
2019-02-02T07:56:56.995Z,1.20
2019-02-02T07:59:28.948Z,1.20
2019-02-02T08:01:59.941Z,1.20
2019-02-02T08:04:30.832Z,1.30
2019-02-02T08:07:01.745Z,1.30
2019-02-02T08:09:33.075Z,1.30
2019-02-02T08:12:04.406Z,1.30
2019-02-02T08:14:36.098Z,1.30
2019-02-02T08:17:07.365Z,1.30
2019-02-02T08:19:38.220Z,1.40
2019-02-02T08:22:09.238Z,1.40
2019-02-02T08:24:41.150Z,1.40
2019-02-02T08:27:12.063Z,1.40
2019-02-02T08:29:42.955Z,1.50
2019-02-02T08:32:13.867Z,1.40
2019-02-02T08:34:44.725Z,1.50
2019-02-02T08:37:15.701Z,1.50
2019-02-02T08:39:46.640Z,1.50
2019-02-02T08:42:17.573Z,1.50
2019-02-02T08:44:48.539Z,1.50
2019-02-02T08:47:19.537Z,1.50
2019-02-02T08:49:50.457Z,1.50
2019-02-02T08:52:21.412Z,1.50
2019-02-02T08:54:52.318Z,1.60
2019-02-02T08:57:23.328Z,1.60
2019-02-02T08:59:55.678Z,1.60
2019-02-02T09:02:28.474Z,1.60
2019-02-02T09:04:59.494Z,1.60
2019-02-02T09:07:30.436Z,1.70
2019-02-02T09:10:01.372Z,1.70
2019-02-02T09:12:33.504Z,1.60
2019-02-02T09:15:05.615Z,1.60
2019-02-02T09:17:36.579Z,1.60
2019-02-02T09:20:08.376Z,1.60
2019-02-02T09:22:39.513Z,1.70
2019-02-02T09:25:12.411Z,1.70
2019-02-02T09:27:43.424Z,1.70
2019-02-02T09:30:34.543Z,1.70
2019-02-02T09:33:05.905Z,1.70
2019-02-02T09:35:36.840Z,1.80
2019-02-02T09:38:07.719Z,1.80
2019-02-02T09:40:38.692Z,1.80
2019-02-02T09:43:11.733Z,1.90
2019-02-02T09:45:42.557Z,1.90
2019-02-02T09:48:13.599Z,2.00
2019-02-02T09:50:44.486Z,2.00
2019-02-02T09:53:15.504Z,2.10
2019-02-02T09:55:46.344Z,2.10
2019-02-02T09:58:17.237Z,2.10
2019-02-02T10:00:48.086Z,2.10
2019-02-02T10:03:19.162Z,2.10
2019-02-02T10:05:50.144Z,2.20
2019-02-02T10:08:21.025Z,2.30
2019-02-02T10:10:52.038Z,2.30
2019-02-02T10:13:23.097Z,2.40
2019-02-02T10:15:54.758Z,2.40
2019-02-02T10:18:25.845Z,2.40
2019-02-02T10:21:03.597Z,2.40
2019-02-02T10:23:29.280Z,2.40
2019-02-02T10:26:00.157Z,2.50
2019-02-02T10:28:31.184Z,2.50
2019-02-02T10:31:02.118Z,2.50
2019-02-02T10:33:33.145Z,2.60
2019-02-02T10:36:04.100Z,2.70
2019-02-02T10:38:35.072Z,2.70
2019-02-02T10:41:06.184Z,2.70
2019-02-02T10:43:38.337Z,2.80
2019-02-02T10:46:12.599Z,2.90
2019-02-02T10:48:43.626Z,2.90
2019-02-02T10:51:14.544Z,2.90
2019-02-02T10:53:45.557Z,3.00
2019-02-02T10:56:17.644Z,3.00
2019-02-02T10:58:48.544Z,3.00
2019-02-02T11:01:19.612Z,3.10
2019-02-02T11:03:50.586Z,3.10
2019-02-02T11:06:21.615Z,3.10
2019-02-02T11:08:52.549Z,3.10
2019-02-02T11:11:23.669Z,3.10
2019-02-02T11:13:56.160Z,3.10
2019-02-02T11:16:28.354Z,3.00
2019-02-02T11:19:05.939Z,3.00
2019-02-02T11:21:37.487Z,3.00
2019-02-02T11:24:09.181Z,3.00
2019-02-02T11:26:40.902Z,2.90
2019-02-02T11:29:12.998Z,2.90
2019-02-02T11:31:44.056Z,2.80
2019-02-02T11:34:15.330Z,2.80
2019-02-02T11:36:46.363Z,2.80
2019-02-02T11:39:20.555Z,2.70
2019-02-02T11:41:52.262Z,2.70
2019-02-02T11:44:23.862Z,2.70
2019-02-02T11:46:56.475Z,2.70
2019-02-02T11:49:28.478Z,2.70
2019-02-02T11:52:02.586Z,2.70
2019-02-02T11:54:38.215Z,2.70
2019-02-02T11:57:10.207Z,2.70
2019-02-02T11:59:41.669Z,2.60
2019-02-02T12:02:14.999Z,2.60
2019-02-02T12:04:47.446Z,2.60
2019-02-02T12:07:20.422Z,2.50
2019-02-02T12:09:51.886Z,2.50
2019-02-02T12:12:23.027Z,2.50
2019-02-02T12:14:56.879Z,2.40
2019-02-02T12:17:27.842Z,2.40
2019-02-02T12:19:59.982Z,2.40
2019-02-02T12:22:33.100Z,2.40
2019-02-02T12:25:05.040Z,2.30
2019-02-02T12:27:36.623Z,2.30
2019-02-02T12:30:10.355Z,2.30
2019-02-02T12:32:41.787Z,2.20
2019-02-02T12:35:17.820Z,2.20
2019-02-02T12:37:49.522Z,2.20
2019-02-02T12:40:22.870Z,2.10
2019-02-02T12:42:54.497Z,2.10
2019-02-02T12:45:34.853Z,2.10
2019-02-02T12:48:06.938Z,2.00
2019-02-02T12:50:38.463Z,2.00
2019-02-02T12:53:10.789Z,2.00
2019-02-02T12:55:41.763Z,1.90
2019-02-02T12:58:16.088Z,1.90
2019-02-02T13:03:43.671Z,1.90
2019-02-02T13:06:16.340Z,1.90
2019-02-02T13:08:47.608Z,1.90
2019-02-02T13:11:18.520Z,1.90
2019-02-02T13:13:50.178Z,1.90
2019-02-02T13:16:21.290Z,1.90
2019-02-02T13:18:53.287Z,1.90
2019-02-02T13:21:24.754Z,1.80
2019-02-02T13:23:55.888Z,1.90
2019-02-02T13:26:27.015Z,1.80
2019-02-02T13:28:59.118Z,1.80
2019-02-02T13:31:30.831Z,1.80
2019-02-02T13:34:02.029Z,1.80
2019-02-02T13:36:33.091Z,1.80
2019-02-02T13:39:06.414Z,1.70
2019-02-02T13:41:37.581Z,1.70
2019-02-02T13:44:08.802Z,1.70
2019-02-02T13:46:41.423Z,1.70
2019-02-02T13:49:14.123Z,1.70
2019-02-02T13:51:45.353Z,1.70
2019-02-02T13:54:16.942Z,1.70
2019-02-02T13:56:50.680Z,1.70
2019-02-02T13:59:21.901Z,1.70
2019-02-02T14:01:52.994Z,1.70
2019-02-02T14:04:23.913Z,1.70
2019-02-02T14:06:54.960Z,1.70
2019-02-02T14:09:25.862Z,1.70
2019-02-02T14:11:56.715Z,1.70
2019-02-02T14:14:31.386Z,1.70
2019-02-02T14:17:03.953Z,1.60
2019-02-02T14:19:36.789Z,1.60
2019-02-02T14:22:07.970Z,1.60
2019-02-02T14:24:39.107Z,1.60
2019-02-02T14:27:11.859Z,1.60
2019-02-02T14:29:43.130Z,1.60
2019-02-02T14:32:14.548Z,1.60
2019-02-02T14:34:45.728Z,1.50
2019-02-02T14:37:17.342Z,1.50
2019-02-02T14:39:49.322Z,1.50
2019-02-02T14:42:20.842Z,1.50
2019-02-02T14:44:51.942Z,1.50
2019-02-02T14:47:24.745Z,1.40
2019-02-02T14:49:56.024Z,1.40
2019-02-02T14:52:27.464Z,1.40
2019-02-02T14:54:58.932Z,1.40
2019-02-02T14:57:31.020Z,1.40
2019-02-02T15:00:02.431Z,1.40
2019-02-02T15:02:33.606Z,1.40
2019-02-02T15:05:05.865Z,1.40
2019-02-02T15:07:37.308Z,1.30
2019-02-02T15:10:09.872Z,1.30
2019-02-02T15:12:41.077Z,1.30
2019-02-02T15:15:13.013Z,1.30
2019-02-02T15:17:44.664Z,1.30
2019-02-02T15:20:22.335Z,1.30
2019-02-02T15:22:55.822Z,1.30
2019-02-02T15:25:27.084Z,1.30
2019-02-02T15:27:58.340Z,1.30
2019-02-02T15:30:30.514Z,1.30
2019-02-02T15:33:01.965Z,1.30
2019-02-02T15:35:33.334Z,1.30
2019-02-02T15:38:06.475Z,1.30
2019-02-02T15:40:38.139Z,1.30
2019-02-02T15:43:09.432Z,1.30
2019-02-02T15:45:40.781Z,1.30
2019-02-02T15:48:13.752Z,1.30
2019-02-02T15:50:44.856Z,1.30
2019-02-02T15:53:16.226Z,1.20
2019-02-02T15:55:47.367Z,1.20
2019-02-02T15:58:19.839Z,1.20
2019-02-02T16:00:51.307Z,1.20
2019-02-02T16:03:22.981Z,1.20
2019-02-02T16:05:57.017Z,1.20
2019-02-02T16:08:29.670Z,1.20
2019-02-02T16:11:00.744Z,1.20
2019-02-02T16:13:31.931Z,1.20
2019-02-02T16:16:03.221Z,1.20
2019-02-02T16:18:36.225Z,1.20
2019-02-02T16:21:07.680Z,1.20
2019-02-02T16:23:39.088Z,1.20
2019-02-02T16:26:11.557Z,1.20
2019-02-02T16:28:43.627Z,1.20
2019-02-02T16:31:15.187Z,1.20
2019-02-02T16:33:46.320Z,1.20
2019-02-02T16:36:17.337Z,1.20
2019-02-02T16:38:48.381Z,1.20
2019-02-02T16:41:19.962Z,1.20
2019-02-02T16:43:52.014Z,1.20
2019-02-02T16:46:23.616Z,1.20
2019-02-02T16:48:54.736Z,1.20
2019-02-02T16:51:26.359Z,1.20
2019-02-02T16:53:57.455Z,1.20
2019-02-02T16:56:28.436Z,1.20
2019-02-02T16:59:01.109Z,1.20
2019-02-02T17:01:32.229Z,1.20
2019-02-02T17:04:16.306Z,1.20
2019-02-02T17:06:48.924Z,1.20
2019-02-02T17:09:22.139Z,1.20
2019-02-02T17:11:53.089Z,1.20
2019-02-02T17:14:24.272Z,1.20
2019-02-02T17:16:56.952Z,1.20
2019-02-02T17:19:29.359Z,1.20
2019-02-02T17:22:00.956Z,1.20
2019-02-02T17:24:33.072Z,1.20
2019-02-02T17:27:04.318Z,1.20
2019-02-02T17:29:35.437Z,1.20
2019-02-02T17:32:06.508Z,1.20
2019-02-02T17:34:37.448Z,1.20
2019-02-02T17:37:08.399Z,1.20
2019-02-02T17:39:41.252Z,1.20
2019-02-02T17:42:12.622Z,1.20
2019-02-02T17:44:43.755Z,1.20
2019-02-02T17:47:16.453Z,1.20
2019-02-02T17:49:48.114Z,1.20
2019-02-02T17:52:19.360Z,1.20
2019-02-02T17:54:50.487Z,1.30
2019-02-02T17:57:22.887Z,1.20
2019-02-02T17:59:55.985Z,1.20
2019-02-02T18:02:27.235Z,1.20
2019-02-02T18:04:58.408Z,1.20
2019-02-02T18:07:29.702Z,1.30
2019-02-02T18:10:00.864Z,1.20
2019-02-02T18:12:32.398Z,1.30
2019-02-02T18:15:04.389Z,1.20
2019-02-02T18:17:35.867Z,1.20
2019-02-02T18:20:09.042Z,1.20
2019-02-02T18:22:40.611Z,1.20
2019-02-02T18:25:13.023Z,1.20
2019-02-02T18:27:45.692Z,1.20
2019-02-02T18:30:18.757Z,1.20
2019-02-02T18:32:49.923Z,1.30
2019-02-02T18:35:21.311Z,1.30
2019-02-02T18:37:52.764Z,1.40
2019-02-02T18:40:25.006Z,1.50
2019-02-02T18:42:56.379Z,1.60
2019-02-02T18:45:28.404Z,1.60
2019-02-02T18:47:59.497Z,1.70
2019-02-02T18:50:30.866Z,1.70
2019-02-02T18:53:02.376Z,1.70
2019-02-02T18:55:49.227Z,1.70
2019-02-02T18:58:20.827Z,1.70
2019-02-02T19:00:52.757Z,1.70
2019-02-02T19:03:25.784Z,1.70
2019-02-02T19:05:57.460Z,1.70
2019-02-02T19:08:30.161Z,1.60
2019-02-02T19:11:03.594Z,1.50
2019-02-02T19:13:34.832Z,1.50
2019-02-02T19:16:06.613Z,1.50
2019-02-02T19:18:37.864Z,1.50
2019-02-02T19:21:10.961Z,1.50
2019-02-02T19:23:42.550Z,1.50
2019-02-02T19:26:13.901Z,1.50
2019-02-02T19:28:45.279Z,1.40
2019-02-02T19:31:17.101Z,1.40
2019-02-02T19:33:48.485Z,1.40
2019-02-02T19:36:21.022Z,1.40
2019-02-02T19:38:53.454Z,1.30
2019-02-02T19:41:24.994Z,1.30
2019-02-02T19:43:56.257Z,1.30
2019-02-02T19:46:27.487Z,1.30
2019-02-02T19:48:58.590Z,1.30
2019-02-02T19:51:29.781Z,1.30
2019-02-02T19:54:01.038Z,1.20
2019-02-02T19:56:32.086Z,1.20
2019-02-02T19:59:04.554Z,1.20
2019-02-02T20:01:36.531Z,1.20
2019-02-02T20:04:07.585Z,1.20
2019-02-02T20:06:39.235Z,1.20
2019-02-02T20:09:10.772Z,1.20
2019-02-02T20:11:41.775Z,1.20
2019-02-02T20:14:12.871Z,1.20
2019-02-02T20:16:45.197Z,1.20
2019-02-02T20:19:16.298Z,1.20
2019-02-02T20:21:47.446Z,1.20
2019-02-02T20:24:18.905Z,1.20
2019-02-02T20:26:50.046Z,1.20
2019-02-02T20:29:22.034Z,1.20
2019-02-02T20:31:54.370Z,1.20
2019-02-02T20:34:25.720Z,1.30
2019-02-02T20:36:56.826Z,1.30
2019-02-02T20:39:27.934Z,1.20
2019-02-02T20:41:59.990Z,1.30
2019-02-02T20:44:31.231Z,1.20
2019-02-02T20:47:03.133Z,1.20
2019-02-02T20:49:35.781Z,1.20
2019-02-02T20:52:06.714Z,1.20
2019-02-02T20:54:37.967Z,1.20
2019-02-02T20:57:09.002Z,1.20
2019-02-02T20:59:40.085Z,1.20
2019-02-02T21:02:11.400Z,1.30
2019-02-02T21:04:42.849Z,1.30
2019-02-02T21:07:13.784Z,1.30
2019-02-02T21:09:45.894Z,1.30
2019-02-02T21:12:18.654Z,1.30
2019-02-02T21:14:49.803Z,1.30
2019-02-02T21:17:22.654Z,1.30
2019-02-02T21:19:53.775Z,1.30
2019-02-02T21:22:24.715Z,1.30
2019-02-02T21:24:56.112Z,1.30
2019-02-02T21:27:27.412Z,1.30
2019-02-02T21:29:58.421Z,1.30
2019-02-02T21:32:30.867Z,1.30
2019-02-02T21:35:02.727Z,1.30
2019-02-02T21:37:33.958Z,1.20
2019-02-02T21:40:07.589Z,1.20
2019-02-02T21:42:38.654Z,1.20
2019-02-02T21:45:11.209Z,1.20
2019-02-02T21:47:43.203Z,1.20
2019-02-02T21:50:18.353Z,1.20
2019-02-02T21:52:50.766Z,1.20
2019-02-02T21:55:23.803Z,1.20
2019-02-02T21:57:55.833Z,1.20
2019-02-02T22:00:39.661Z,1.20
2019-02-02T22:03:12.775Z,1.20
2019-02-02T22:05:43.991Z,1.20
2019-02-02T22:08:17.062Z,1.20
2019-02-02T22:10:48.107Z,1.20
2019-02-02T22:13:19.080Z,1.20
2019-02-02T22:15:50.027Z,1.20
2019-02-02T22:18:21.844Z,1.20
2019-02-02T22:20:53.208Z,1.20
2019-02-02T22:23:24.358Z,1.20
2019-02-02T22:25:55.561Z,1.20
2019-02-02T22:28:26.792Z,1.20
2019-02-02T22:30:58.062Z,1.20
2019-02-02T22:33:29.236Z,1.20
2019-02-02T22:36:00.322Z,1.20
2019-02-02T22:38:31.254Z,1.20
2019-02-02T22:41:02.328Z,1.20
2019-02-02T22:43:33.382Z,1.20
2019-02-02T22:46:05.039Z,1.20
2019-02-02T22:48:36.028Z,1.30
2019-02-02T22:51:06.940Z,1.20
2019-02-02T22:53:37.912Z,1.20
2019-02-02T22:56:09.026Z,1.20
2019-02-02T22:58:39.932Z,1.30
2019-02-02T23:01:23.383Z,1.30
2019-02-02T23:04:01.234Z,1.30
2019-02-02T23:07:18.934Z,1.30
2019-02-02T23:10:31.964Z,1.20
2019-02-02T23:13:51.859Z,1.20
2019-02-02T23:16:30.333Z,1.20
2019-02-02T23:19:01.838Z,1.30
2019-02-02T23:21:33.640Z,1.20
2019-02-02T23:24:04.634Z,1.20
2019-02-02T23:26:37.893Z,1.20
2019-02-02T23:29:09.089Z,1.20
2019-02-02T23:31:40.013Z,1.20
2019-02-02T23:34:11.128Z,1.20
2019-02-02T23:36:50.811Z,1.30
2019-02-02T23:39:14.536Z,1.20
2019-02-02T23:41:45.684Z,1.20
2019-02-02T23:44:16.853Z,1.30
2019-02-02T23:46:47.836Z,1.20
2019-02-02T23:49:18.764Z,1.20
2019-02-02T23:51:49.661Z,1.20
2019-02-02T23:54:20.668Z,1.20
2019-02-02T23:56:51.679Z,1.20
2019-02-02T23:59:25.662Z,1.20
